sensor_id;sensor_type;location;lat;lon;timestamp;P1;durP1;ratioP1;P2;durP2;ratioP2
57663;SDS011;43493;53.098;6.064;2023-03-31T00:00:31;34.37;;;6.53;;
57663;SDS011;43493;53.098;6.064;2023-03-31T00:02:57;38.43;;;7.57;;
57663;SDS011;43493;53.098;6.064;2023-03-31T00:05:23;42.80;;;7.57;;
57663;SDS011;43493;53.098;6.064;2023-03-31T00:07:56;33.97;;;6.50;;
57663;SDS011;43493;53.098;6.064;2023-03-31T00:10:31;36.10;;;7.13;;
57663;SDS011;43493;53.098;6.064;2023-03-31T00:12:59;34.73;;;6.30;;
57663;SDS011;43493;53.098;6.064;2023-03-31T00:15:26;39.70;;;7.40;;
57663;SDS011;43493;53.098;6.064;2023-03-31T00:17:52;32.13;;;6.77;;
57663;SDS011;43493;53.098;6.064;2023-03-31T00:20:18;40.00;;;7.53;;
57663;SDS011;43493;53.098;6.064;2023-03-31T00:22:44;31.37;;;6.53;;
57663;SDS011;43493;53.098;6.064;2023-03-31T00:25:11;29.83;;;6.47;;
57663;SDS011;43493;53.098;6.064;2023-03-31T00:27:39;38.57;;;7.87;;
57663;SDS011;43493;53.098;6.064;2023-03-31T00:30:08;38.10;;;7.67;;
57663;SDS011;43493;53.098;6.064;2023-03-31T00:32:36;33.03;;;6.53;;
57663;SDS011;43493;53.098;6.064;2023-03-31T00:35:02;27.90;;;5.83;;
57663;SDS011;43493;53.098;6.064;2023-03-31T00:37:29;33.00;;;5.83;;
57663;SDS011;43493;53.098;6.064;2023-03-31T00:39:55;41.00;;;7.10;;
57663;SDS011;43493;53.098;6.064;2023-03-31T00:42:21;34.10;;;6.23;;
57663;SDS011;43493;53.098;6.064;2023-03-31T00:50:25;31.03;;;5.93;;
57663;SDS011;43493;53.098;6.064;2023-03-31T00:52:54;34.33;;;7.13;;
57663;SDS011;43493;53.098;6.064;2023-03-31T00:55:34;36.27;;;7.30;;
57663;SDS011;43493;53.098;6.064;2023-03-31T00:58:04;35.70;;;7.13;;
57663;SDS011;43493;53.098;6.064;2023-03-31T01:00:32;29.17;;;5.77;;
57663;SDS011;43493;53.098;6.064;2023-03-31T01:02:59;29.57;;;5.77;;
57663;SDS011;43493;53.098;6.064;2023-03-31T01:05:37;31.43;;;7.53;;
57663;SDS011;43493;53.098;6.064;2023-03-31T01:08:09;32.93;;;6.70;;
57663;SDS011;43493;53.098;6.064;2023-03-31T01:10:38;35.40;;;6.93;;
57663;SDS011;43493;53.098;6.064;2023-03-31T01:13:10;30.47;;;5.13;;
57663;SDS011;43493;53.098;6.064;2023-03-31T01:15:39;38.70;;;7.30;;
57663;SDS011;43493;53.098;6.064;2023-03-31T01:18:07;33.77;;;5.70;;
57663;SDS011;43493;53.098;6.064;2023-03-31T01:28:32;33.13;;;5.97;;
57663;SDS011;43493;53.098;6.064;2023-03-31T01:31:29;33.13;;;6.17;;
57663;SDS011;43493;53.098;6.064;2023-03-31T01:34:15;30.63;;;5.80;;
57663;SDS011;43493;53.098;6.064;2023-03-31T01:42:49;35.30;;;6.73;;
57663;SDS011;43493;53.098;6.064;2023-03-31T01:45:36;29.87;;;5.43;;
57663;SDS011;43493;53.098;6.064;2023-03-31T01:48:15;30.80;;;6.77;;
57663;SDS011;43493;53.098;6.064;2023-03-31T01:51:06;28.37;;;5.23;;
57663;SDS011;43493;53.098;6.064;2023-03-31T01:53:44;32.50;;;6.30;;
57663;SDS011;43493;53.098;6.064;2023-03-31T01:56:30;31.30;;;6.80;;
57663;SDS011;43493;53.098;6.064;2023-03-31T01:59:01;27.23;;;5.60;;
57663;SDS011;43493;53.098;6.064;2023-03-31T02:01:46;24.58;;;5.88;;
57663;SDS011;43493;53.098;6.064;2023-03-31T02:04:23;28.37;;;5.17;;
57663;SDS011;43493;53.098;6.064;2023-03-31T02:07:49;25.43;;;5.07;;
57663;SDS011;43493;53.098;6.064;2023-03-31T02:10:06;26.77;;;5.70;;
57663;SDS011;43493;53.098;6.064;2023-03-31T02:12:34;26.50;;;5.03;;
57663;SDS011;43493;53.098;6.064;2023-03-31T02:15:04;25.23;;;4.00;;
57663;SDS011;43493;53.098;6.064;2023-03-31T02:17:33;30.37;;;5.27;;
57663;SDS011;43493;53.098;6.064;2023-03-31T02:20:05;28.27;;;5.00;;
57663;SDS011;43493;53.098;6.064;2023-03-31T02:22:36;29.50;;;4.93;;
57663;SDS011;43493;53.098;6.064;2023-03-31T02:25:06;24.50;;;5.47;;
57663;SDS011;43493;53.098;6.064;2023-03-31T02:27:35;31.20;;;5.67;;
57663;SDS011;43493;53.098;6.064;2023-03-31T02:30:04;27.90;;;4.30;;
57663;SDS011;43493;53.098;6.064;2023-03-31T02:32:34;20.80;;;4.50;;
57663;SDS011;43493;53.098;6.064;2023-03-31T02:35:05;30.03;;;5.57;;
57663;SDS011;43493;53.098;6.064;2023-03-31T02:37:35;24.67;;;5.87;;
57663;SDS011;43493;53.098;6.064;2023-03-31T02:40:04;24.13;;;5.00;;
57663;SDS011;43493;53.098;6.064;2023-03-31T02:42:35;31.87;;;5.23;;
57663;SDS011;43493;53.098;6.064;2023-03-31T02:45:03;28.23;;;5.37;;
57663;SDS011;43493;53.098;6.064;2023-03-31T02:47:30;25.57;;;5.47;;
57663;SDS011;43493;53.098;6.064;2023-03-31T02:49:58;24.93;;;4.67;;
57663;SDS011;43493;53.098;6.064;2023-03-31T02:55:41;22.60;;;4.90;;
57663;SDS011;43493;53.098;6.064;2023-03-31T02:58:25;26.43;;;5.03;;
57663;SDS011;43493;53.098;6.064;2023-03-31T03:03:35;23.33;;;4.97;;
57663;SDS011;43493;53.098;6.064;2023-03-31T03:17:14;21.50;;;4.67;;
57663;SDS011;43493;53.098;6.064;2023-03-31T03:19:59;17.30;;;3.90;;
57663;SDS011;43493;53.098;6.064;2023-03-31T03:22:31;19.27;;;3.53;;
57663;SDS011;43493;53.098;6.064;2023-03-31T03:24:57;20.30;;;4.50;;
57663;SDS011;43493;53.098;6.064;2023-03-31T03:27:23;22.10;;;5.23;;
57663;SDS011;43493;53.098;6.064;2023-03-31T03:29:49;21.63;;;4.97;;
57663;SDS011;43493;53.098;6.064;2023-03-31T03:32:15;21.47;;;5.03;;
57663;SDS011;43493;53.098;6.064;2023-03-31T03:34:41;19.50;;;4.27;;
57663;SDS011;43493;53.098;6.064;2023-03-31T03:37:07;22.30;;;4.77;;
57663;SDS011;43493;53.098;6.064;2023-03-31T03:39:32;19.83;;;4.40;;
57663;SDS011;43493;53.098;6.064;2023-03-31T03:41:58;25.40;;;4.70;;
57663;SDS011;43493;53.098;6.064;2023-03-31T03:44:24;21.87;;;5.33;;
57663;SDS011;43493;53.098;6.064;2023-03-31T03:46:50;18.67;;;4.97;;
57663;SDS011;43493;53.098;6.064;2023-03-31T03:49:15;18.30;;;4.30;;
57663;SDS011;43493;53.098;6.064;2023-03-31T03:51:41;19.23;;;4.63;;
57663;SDS011;43493;53.098;6.064;2023-03-31T03:54:07;21.07;;;4.37;;
57663;SDS011;43493;53.098;6.064;2023-03-31T03:56:33;19.07;;;5.50;;
57663;SDS011;43493;53.098;6.064;2023-03-31T03:58:58;17.50;;;4.80;;
57663;SDS011;43493;53.098;6.064;2023-03-31T04:01:24;16.27;;;4.40;;
57663;SDS011;43493;53.098;6.064;2023-03-31T04:03:50;20.93;;;5.60;;
57663;SDS011;43493;53.098;6.064;2023-03-31T04:06:16;16.07;;;4.97;;
57663;SDS011;43493;53.098;6.064;2023-03-31T04:08:42;21.50;;;4.93;;
57663;SDS011;43493;53.098;6.064;2023-03-31T04:11:14;16.53;;;4.87;;
57663;SDS011;43493;53.098;6.064;2023-03-31T04:13:42;20.20;;;5.73;;
57663;SDS011;43493;53.098;6.064;2023-03-31T04:16:08;18.87;;;6.23;;
57663;SDS011;43493;53.098;6.064;2023-03-31T04:18:34;19.87;;;5.70;;
57663;SDS011;43493;53.098;6.064;2023-03-31T04:21:07;17.20;;;5.43;;
57663;SDS011;43493;53.098;6.064;2023-03-31T04:23:36;21.07;;;6.03;;
57663;SDS011;43493;53.098;6.064;2023-03-31T04:26:07;20.73;;;6.67;;
57663;SDS011;43493;53.098;6.064;2023-03-31T04:28:34;22.87;;;6.37;;
57663;SDS011;43493;53.098;6.064;2023-03-31T04:31:01;18.20;;;6.27;;
57663;SDS011;43493;53.098;6.064;2023-03-31T04:33:27;16.80;;;6.27;;
57663;SDS011;43493;53.098;6.064;2023-03-31T04:35:53;18.53;;;6.57;;
57663;SDS011;43493;53.098;6.064;2023-03-31T04:38:20;18.23;;;6.77;;
57663;SDS011;43493;53.098;6.064;2023-03-31T04:40:48;23.70;;;5.87;;
57663;SDS011;43493;53.098;6.064;2023-03-31T04:43:16;20.00;;;6.43;;
57663;SDS011;43493;53.098;6.064;2023-03-31T04:45:43;22.40;;;5.70;;
57663;SDS011;43493;53.098;6.064;2023-03-31T04:48:08;19.73;;;6.27;;
57663;SDS011;43493;53.098;6.064;2023-03-31T04:50:34;14.70;;;5.67;;
57663;SDS011;43493;53.098;6.064;2023-03-31T04:53:01;20.93;;;7.00;;
57663;SDS011;43493;53.098;6.064;2023-03-31T04:55:28;17.00;;;5.90;;
57663;SDS011;43493;53.098;6.064;2023-03-31T04:57:54;20.47;;;6.60;;
57663;SDS011;43493;53.098;6.064;2023-03-31T05:00:20;22.97;;;6.90;;
57663;SDS011;43493;53.098;6.064;2023-03-31T05:02:46;14.87;;;5.97;;
57663;SDS011;43493;53.098;6.064;2023-03-31T05:05:11;22.73;;;7.00;;
57663;SDS011;43493;53.098;6.064;2023-03-31T05:07:38;20.70;;;6.97;;
57663;SDS011;43493;53.098;6.064;2023-03-31T05:10:04;18.70;;;7.03;;
57663;SDS011;43493;53.098;6.064;2023-03-31T05:12:34;17.67;;;7.10;;
57663;SDS011;43493;53.098;6.064;2023-03-31T05:15:00;19.37;;;7.50;;
57663;SDS011;43493;53.098;6.064;2023-03-31T05:17:26;19.23;;;7.17;;
57663;SDS011;43493;53.098;6.064;2023-03-31T05:19:52;18.97;;;8.17;;
57663;SDS011;43493;53.098;6.064;2023-03-31T05:22:17;14.50;;;6.73;;
57663;SDS011;43493;53.098;6.064;2023-03-31T05:24:45;21.13;;;7.53;;
57663;SDS011;43493;53.098;6.064;2023-03-31T05:27:11;16.50;;;6.63;;
57663;SDS011;43493;53.098;6.064;2023-03-31T05:29:37;20.00;;;8.50;;
57663;SDS011;43493;53.098;6.064;2023-03-31T05:32:03;18.37;;;7.43;;
57663;SDS011;43493;53.098;6.064;2023-03-31T05:34:29;19.53;;;7.40;;
57663;SDS011;43493;53.098;6.064;2023-03-31T05:36:55;17.00;;;7.43;;
57663;SDS011;43493;53.098;6.064;2023-03-31T05:39:20;19.67;;;7.73;;
57663;SDS011;43493;53.098;6.064;2023-03-31T05:41:46;21.70;;;7.70;;
57663;SDS011;43493;53.098;6.064;2023-03-31T05:44:12;21.43;;;8.43;;
57663;SDS011;43493;53.098;6.064;2023-03-31T05:46:39;17.63;;;7.07;;
57663;SDS011;43493;53.098;6.064;2023-03-31T05:49:05;20.57;;;8.20;;
57663;SDS011;43493;53.098;6.064;2023-03-31T05:51:32;15.00;;;7.57;;
57663;SDS011;43493;53.098;6.064;2023-03-31T05:53:58;22.13;;;7.13;;
57663;SDS011;43493;53.098;6.064;2023-03-31T05:56:24;18.87;;;7.60;;
57663;SDS011;43493;53.098;6.064;2023-03-31T05:58:51;15.90;;;7.37;;
57663;SDS011;43493;53.098;6.064;2023-03-31T06:01:17;16.63;;;8.17;;
57663;SDS011;43493;53.098;6.064;2023-03-31T06:03:44;21.93;;;7.70;;
57663;SDS011;43493;53.098;6.064;2023-03-31T06:06:11;16.20;;;6.80;;
57663;SDS011;43493;53.098;6.064;2023-03-31T06:08:44;14.30;;;6.90;;
57663;SDS011;43493;53.098;6.064;2023-03-31T06:11:12;17.97;;;7.00;;
57663;SDS011;43493;53.098;6.064;2023-03-31T06:13:43;20.47;;;6.83;;
57663;SDS011;43493;53.098;6.064;2023-03-31T06:16:10;13.63;;;5.97;;
57663;SDS011;43493;53.098;6.064;2023-03-31T06:18:37;14.27;;;6.90;;
57663;SDS011;43493;53.098;6.064;2023-03-31T06:21:03;12.73;;;6.07;;
57663;SDS011;43493;53.098;6.064;2023-03-31T06:23:29;11.80;;;5.43;;
57663;SDS011;43493;53.098;6.064;2023-03-31T06:25:59;14.47;;;5.57;;
57663;SDS011;43493;53.098;6.064;2023-03-31T06:28:31;18.20;;;5.77;;
57663;SDS011;43493;53.098;6.064;2023-03-31T06:30:59;13.40;;;5.40;;
57663;SDS011;43493;53.098;6.064;2023-03-31T06:33:32;11.38;;;5.18;;
57663;SDS011;43493;53.098;6.064;2023-03-31T06:35:59;17.47;;;5.63;;
57663;SDS011;43493;53.098;6.064;2023-03-31T06:38:29;16.53;;;5.27;;
57663;SDS011;43493;53.098;6.064;2023-03-31T06:40:55;17.43;;;5.27;;
57663;SDS011;43493;53.098;6.064;2023-03-31T06:43:21;13.60;;;4.97;;
57663;SDS011;43493;53.098;6.064;2023-03-31T06:45:47;11.60;;;4.20;;
57663;SDS011;43493;53.098;6.064;2023-03-31T06:48:13;13.03;;;4.47;;
57663;SDS011;43493;53.098;6.064;2023-03-31T06:50:39;14.40;;;4.70;;
57663;SDS011;43493;53.098;6.064;2023-03-31T06:53:06;10.83;;;4.63;;
57663;SDS011;43493;53.098;6.064;2023-03-31T06:55:35;14.57;;;4.90;;
57663;SDS011;43493;53.098;6.064;2023-03-31T06:58:01;9.10;;;3.90;;
57663;SDS011;43493;53.098;6.064;2023-03-31T07:00:28;11.30;;;3.93;;
57663;SDS011;43493;53.098;6.064;2023-03-31T07:02:53;10.67;;;4.63;;
57663;SDS011;43493;53.098;6.064;2023-03-31T07:05:20;11.40;;;4.53;;
57663;SDS011;43493;53.098;6.064;2023-03-31T07:07:59;13.10;;;4.80;;
57663;SDS011;43493;53.098;6.064;2023-03-31T07:10:26;10.30;;;4.27;;
57663;SDS011;43493;53.098;6.064;2023-03-31T07:12:54;10.63;;;4.40;;
57663;SDS011;43493;53.098;6.064;2023-03-31T07:15:20;11.93;;;3.60;;
57663;SDS011;43493;53.098;6.064;2023-03-31T07:17:46;12.57;;;4.80;;
57663;SDS011;43493;53.098;6.064;2023-03-31T07:20:15;11.90;;;4.10;;
57663;SDS011;43493;53.098;6.064;2023-03-31T07:22:42;8.17;;;3.80;;
57663;SDS011;43493;53.098;6.064;2023-03-31T07:25:09;13.90;;;4.37;;
57663;SDS011;43493;53.098;6.064;2023-03-31T07:27:36;9.43;;;4.00;;
57663;SDS011;43493;53.098;6.064;2023-03-31T07:30:03;11.77;;;4.00;;
57663;SDS011;43493;53.098;6.064;2023-03-31T07:32:30;9.57;;;3.63;;
57663;SDS011;43493;53.098;6.064;2023-03-31T07:34:57;11.97;;;4.70;;
57663;SDS011;43493;53.098;6.064;2023-03-31T07:37:23;11.70;;;5.17;;
57663;SDS011;43493;53.098;6.064;2023-03-31T07:39:49;10.27;;;4.40;;
57663;SDS011;43493;53.098;6.064;2023-03-31T07:42:15;14.40;;;4.27;;
57663;SDS011;43493;53.098;6.064;2023-03-31T07:44:41;8.70;;;4.50;;
57663;SDS011;43493;53.098;6.064;2023-03-31T07:47:07;11.37;;;4.37;;
57663;SDS011;43493;53.098;6.064;2023-03-31T07:49:33;12.23;;;4.70;;
57663;SDS011;43493;53.098;6.064;2023-03-31T07:51:59;11.47;;;4.40;;
57663;SDS011;43493;53.098;6.064;2023-03-31T07:54:26;7.43;;;4.30;;
57663;SDS011;43493;53.098;6.064;2023-03-31T07:56:52;12.53;;;4.60;;
57663;SDS011;43493;53.098;6.064;2023-03-31T07:59:18;8.93;;;4.00;;
57663;SDS011;43493;53.098;6.064;2023-03-31T08:01:45;10.43;;;4.80;;
57663;SDS011;43493;53.098;6.064;2023-03-31T08:04:10;12.77;;;4.87;;
57663;SDS011;43493;53.098;6.064;2023-03-31T08:06:36;12.13;;;5.30;;
57663;SDS011;43493;53.098;6.064;2023-03-31T08:09:03;12.40;;;5.50;;
57663;SDS011;43493;53.098;6.064;2023-03-31T08:11:32;8.70;;;4.40;;
57663;SDS011;43493;53.098;6.064;2023-03-31T08:13:58;10.60;;;5.67;;
57663;SDS011;43493;53.098;6.064;2023-03-31T08:16:24;12.77;;;4.73;;
57663;SDS011;43493;53.098;6.064;2023-03-31T08:18:50;9.50;;;4.73;;
57663;SDS011;43493;53.098;6.064;2023-03-31T08:21:16;12.43;;;4.60;;
57663;SDS011;43493;53.098;6.064;2023-03-31T08:23:42;10.53;;;4.90;;
57663;SDS011;43493;53.098;6.064;2023-03-31T08:26:12;15.27;;;5.70;;
57663;SDS011;43493;53.098;6.064;2023-03-31T08:28:42;9.77;;;4.55;;
57663;SDS011;43493;53.098;6.064;2023-03-31T08:31:08;13.73;;;5.77;;
57663;SDS011;43493;53.098;6.064;2023-03-31T08:33:34;13.77;;;5.40;;
57663;SDS011;43493;53.098;6.064;2023-03-31T08:36:04;10.93;;;5.20;;
57663;SDS011;43493;53.098;6.064;2023-03-31T08:38:36;14.80;;;5.63;;
57663;SDS011;43493;53.098;6.064;2023-03-31T08:41:04;12.00;;;4.83;;
57663;SDS011;43493;53.098;6.064;2023-03-31T08:43:36;11.57;;;4.73;;
57663;SDS011;43493;53.098;6.064;2023-03-31T08:46:12;11.47;;;4.37;;
57663;SDS011;43493;53.098;6.064;2023-03-31T08:48:43;9.63;;;4.27;;
57663;SDS011;43493;53.098;6.064;2023-03-31T08:53:42;10.47;;;5.03;;
57663;SDS011;43493;53.098;6.064;2023-03-31T08:56:18;12.98;;;4.90;;
57663;SDS011;43493;53.098;6.064;2023-03-31T08:58:48;12.47;;;5.13;;
57663;SDS011;43493;53.098;6.064;2023-03-31T09:06:34;14.05;;;6.13;;
57663;SDS011;43493;53.098;6.064;2023-03-31T09:09:04;15.00;;;5.63;;
57663;SDS011;43493;53.098;6.064;2023-03-31T09:11:35;17.10;;;6.00;;
57663;SDS011;43493;53.098;6.064;2023-03-31T09:14:12;14.00;;;5.10;;
57663;SDS011;43493;53.098;6.064;2023-03-31T09:19:40;15.40;;;5.33;;
57663;SDS011;43493;53.098;6.064;2023-03-31T09:22:13;12.83;;;5.87;;
57663;SDS011;43493;53.098;6.064;2023-03-31T09:27:34;14.60;;;5.47;;
57663;SDS011;43493;53.098;6.064;2023-03-31T09:30:03;9.57;;;4.80;;
57663;SDS011;43493;53.098;6.064;2023-03-31T09:32:35;14.90;;;5.07;;
57663;SDS011;43493;53.098;6.064;2023-03-31T09:35:18;13.97;;;4.47;;
57663;SDS011;43493;53.098;6.064;2023-03-31T09:37:49;11.87;;;4.57;;
57663;SDS011;43493;53.098;6.064;2023-03-31T09:40:19;9.90;;;3.70;;
57663;SDS011;43493;53.098;6.064;2023-03-31T09:42:48;8.17;;;3.20;;
57663;SDS011;43493;53.098;6.064;2023-03-31T09:45:20;9.97;;;3.87;;
57663;SDS011;43493;53.098;6.064;2023-03-31T09:47:46;9.67;;;4.10;;
57663;SDS011;43493;53.098;6.064;2023-03-31T09:50:16;10.53;;;4.30;;
57663;SDS011;43493;53.098;6.064;2023-03-31T09:52:43;9.53;;;3.50;;
57663;SDS011;43493;53.098;6.064;2023-03-31T09:57:59;10.80;;;4.27;;
57663;SDS011;43493;53.098;6.064;2023-03-31T10:00:28;7.60;;;4.17;;
57663;SDS011;43493;53.098;6.064;2023-03-31T10:02:54;10.27;;;4.27;;
57663;SDS011;43493;53.098;6.064;2023-03-31T10:05:34;13.43;;;4.80;;
57663;SDS011;43493;53.098;6.064;2023-03-31T10:10:55;10.50;;;4.03;;
57663;SDS011;43493;53.098;6.064;2023-03-31T10:14:13;10.63;;;3.90;;
57663;SDS011;43493;53.098;6.064;2023-03-31T10:19:18;9.23;;;3.93;;
57663;SDS011;43493;53.098;6.064;2023-03-31T10:21:47;11.00;;;3.73;;
57663;SDS011;43493;53.098;6.064;2023-03-31T10:24:20;10.13;;;4.40;;
57663;SDS011;43493;53.098;6.064;2023-03-31T10:26:51;11.07;;;4.30;;
57663;SDS011;43493;53.098;6.064;2023-03-31T10:29:25;9.60;;;4.43;;
57663;SDS011;43493;53.098;6.064;2023-03-31T10:32:30;11.30;;;4.23;;
57663;SDS011;43493;53.098;6.064;2023-03-31T10:34:53;12.70;;;4.70;;
57663;SDS011;43493;53.098;6.064;2023-03-31T10:37:21;15.70;;;5.10;;
57663;SDS011;43493;53.098;6.064;2023-03-31T10:39:59;8.43;;;3.37;;
57663;SDS011;43493;53.098;6.064;2023-03-31T10:42:31;11.60;;;4.10;;
57663;SDS011;43493;53.098;6.064;2023-03-31T10:47:51;10.97;;;3.97;;
57663;SDS011;43493;53.098;6.064;2023-03-31T10:50:18;12.90;;;4.40;;
57663;SDS011;43493;53.098;6.064;2023-03-31T10:52:50;11.77;;;3.80;;
57663;SDS011;43493;53.098;6.064;2023-03-31T10:55:27;9.70;;;3.53;;
57663;SDS011;43493;53.098;6.064;2023-03-31T10:58:04;12.48;;;3.85;;
57663;SDS011;43493;53.098;6.064;2023-03-31T11:00:54;11.00;;;3.60;;
57663;SDS011;43493;53.098;6.064;2023-03-31T11:11:55;13.43;;;3.93;;
57663;SDS011;43493;53.098;6.064;2023-03-31T11:17:26;13.13;;;4.27;;
57663;SDS011;43493;53.098;6.064;2023-03-31T11:23:30;12.80;;;4.17;;
57663;SDS011;43493;53.098;6.064;2023-03-31T11:25:55;14.47;;;4.67;;
57663;SDS011;43493;53.098;6.064;2023-03-31T11:34:10;12.00;;;3.63;;
57663;SDS011;43493;53.098;6.064;2023-03-31T11:42:17;14.53;;;3.70;;
57663;SDS011;43493;53.098;6.064;2023-03-31T11:44:49;11.97;;;3.73;;
57663;SDS011;43493;53.098;6.064;2023-03-31T11:47:19;10.40;;;3.30;;
57663;SDS011;43493;53.098;6.064;2023-03-31T11:52:20;7.47;;;2.80;;
57663;SDS011;43493;53.098;6.064;2023-03-31T11:57:32;7.27;;;3.50;;
57663;SDS011;43493;53.098;6.064;2023-03-31T12:00:05;6.87;;;3.20;;
57663;SDS011;43493;53.098;6.064;2023-03-31T12:05:25;9.67;;;3.73;;
57663;SDS011;43493;53.098;6.064;2023-03-31T12:08:09;13.93;;;4.60;;
57663;SDS011;43493;53.098;6.064;2023-03-31T12:10:42;10.23;;;4.13;;
57663;SDS011;43493;53.098;6.064;2023-03-31T12:19:01;12.07;;;4.63;;
57663;SDS011;43493;53.098;6.064;2023-03-31T12:21:30;14.13;;;4.70;;
57663;SDS011;43493;53.098;6.064;2023-03-31T12:23:58;13.80;;;4.87;;
57663;SDS011;43493;53.098;6.064;2023-03-31T12:29:02;15.77;;;4.60;;
57663;SDS011;43493;53.098;6.064;2023-03-31T12:31:36;12.60;;;4.63;;
57663;SDS011;43493;53.098;6.064;2023-03-31T12:34:05;14.23;;;3.80;;
57663;SDS011;43493;53.098;6.064;2023-03-31T12:36:59;13.90;;;3.90;;
57663;SDS011;43493;53.098;6.064;2023-03-31T12:43:13;15.67;;;4.83;;
57663;SDS011;43493;53.098;6.064;2023-03-31T12:49:25;18.10;;;5.13;;
57663;SDS011;43493;53.098;6.064;2023-03-31T12:57:34;12.40;;;4.40;;
57663;SDS011;43493;53.098;6.064;2023-03-31T13:02:41;15.03;;;5.03;;
57663;SDS011;43493;53.098;6.064;2023-03-31T13:08:01;13.47;;;4.03;;
57663;SDS011;43493;53.098;6.064;2023-03-31T13:10:31;13.40;;;3.83;;
57663;SDS011;43493;53.098;6.064;2023-03-31T13:13:04;10.77;;;2.97;;
57663;SDS011;43493;53.098;6.064;2023-03-31T13:15:37;11.83;;;3.17;;
57663;SDS011;43493;53.098;6.064;2023-03-31T13:18:03;14.07;;;3.17;;
57663;SDS011;43493;53.098;6.064;2023-03-31T13:20:37;11.53;;;2.63;;
57663;SDS011;43493;53.098;6.064;2023-03-31T13:25:47;16.17;;;3.17;;
57663;SDS011;43493;53.098;6.064;2023-03-31T13:31:08;13.37;;;2.50;;
57663;SDS011;43493;53.098;6.064;2023-03-31T14:01:43;7.27;;;2.67;;
57663;SDS011;43493;53.098;6.064;2023-03-31T14:04:54;6.60;;;2.77;;
57663;SDS011;43493;53.098;6.064;2023-03-31T14:07:36;7.53;;;2.47;;
57663;SDS011;43493;53.098;6.064;2023-03-31T14:10:20;9.43;;;3.47;;
57663;SDS011;43493;53.098;6.064;2023-03-31T14:13:02;8.67;;;2.10;;
57663;SDS011;43493;53.098;6.064;2023-03-31T14:15:29;12.23;;;4.27;;
57663;SDS011;43493;53.098;6.064;2023-03-31T14:17:55;9.47;;;3.37;;
57663;SDS011;43493;53.098;6.064;2023-03-31T14:23:19;8.23;;;2.43;;
57663;SDS011;43493;53.098;6.064;2023-03-31T14:26:05;10.43;;;2.67;;
57663;SDS011;43493;53.098;6.064;2023-03-31T14:39:32;9.63;;;3.58;;
57663;SDS011;43493;53.098;6.064;2023-03-31T14:42:03;9.00;;;2.73;;
57663;SDS011;43493;53.098;6.064;2023-03-31T14:44:32;12.40;;;3.10;;
57663;SDS011;43493;53.098;6.064;2023-03-31T14:46:59;10.53;;;3.10;;
57663;SDS011;43493;53.098;6.064;2023-03-31T14:49:25;8.43;;;2.50;;
57663;SDS011;43493;53.098;6.064;2023-03-31T14:52:20;10.20;;;2.73;;
57663;SDS011;43493;53.098;6.064;2023-03-31T14:54:49;11.87;;;6.30;;
57663;SDS011;43493;53.098;6.064;2023-03-31T14:57:22;11.57;;;3.57;;
57663;SDS011;43493;53.098;6.064;2023-03-31T14:59:53;14.43;;;5.53;;
57663;SDS011;43493;53.098;6.064;2023-03-31T15:02:41;9.80;;;3.20;;
57663;SDS011;43493;53.098;6.064;2023-03-31T15:05:08;10.20;;;2.50;;
57663;SDS011;43493;53.098;6.064;2023-03-31T15:07:39;9.37;;;2.80;;
57663;SDS011;43493;53.098;6.064;2023-03-31T15:10:05;7.33;;;2.13;;
57663;SDS011;43493;53.098;6.064;2023-03-31T15:12:32;6.57;;;2.20;;
57663;SDS011;43493;53.098;6.064;2023-03-31T15:15:09;9.00;;;2.30;;
57663;SDS011;43493;53.098;6.064;2023-03-31T15:17:41;7.63;;;2.07;;
57663;SDS011;43493;53.098;6.064;2023-03-31T15:23:01;8.90;;;2.27;;
57663;SDS011;43493;53.098;6.064;2023-03-31T15:25:37;7.83;;;3.63;;
57663;SDS011;43493;53.098;6.064;2023-03-31T15:28:06;9.00;;;3.30;;
57663;SDS011;43493;53.098;6.064;2023-03-31T15:30:36;10.40;;;3.57;;
57663;SDS011;43493;53.098;6.064;2023-03-31T15:33:04;9.37;;;3.13;;
57663;SDS011;43493;53.098;6.064;2023-03-31T15:35:32;15.30;;;4.23;;
57663;SDS011;43493;53.098;6.064;2023-03-31T15:38:01;9.70;;;3.47;;
57663;SDS011;43493;53.098;6.064;2023-03-31T15:40:30;8.90;;;2.60;;
57663;SDS011;43493;53.098;6.064;2023-03-31T15:43:07;13.33;;;9.77;;
57663;SDS011;43493;53.098;6.064;2023-03-31T15:50:59;9.47;;;2.40;;
57663;SDS011;43493;53.098;6.064;2023-03-31T15:53:46;8.13;;;2.20;;
57663;SDS011;43493;53.098;6.064;2023-03-31T15:56:34;10.87;;;2.97;;
57663;SDS011;43493;53.098;6.064;2023-03-31T15:59:05;10.90;;;4.63;;
57663;SDS011;43493;53.098;6.064;2023-03-31T16:04:13;10.07;;;3.80;;
57663;SDS011;43493;53.098;6.064;2023-03-31T16:06:44;13.50;;;8.07;;
57663;SDS011;43493;53.098;6.064;2023-03-31T16:09:22;11.05;;;3.90;;
57663;SDS011;43493;53.098;6.064;2023-03-31T16:11:53;10.53;;;3.70;;
57663;SDS011;43493;53.098;6.064;2023-03-31T16:14:26;12.77;;;4.10;;
57663;SDS011;43493;53.098;6.064;2023-03-31T16:17:00;9.93;;;2.87;;
57663;SDS011;43493;53.098;6.064;2023-03-31T16:19:37;9.60;;;2.97;;
57663;SDS011;43493;53.098;6.064;2023-03-31T16:22:14;9.97;;;2.93;;
57663;SDS011;43493;53.098;6.064;2023-03-31T16:24:43;10.80;;;2.83;;
57663;SDS011;43493;53.098;6.064;2023-03-31T16:27:10;12.43;;;2.90;;
57663;SDS011;43493;53.098;6.064;2023-03-31T16:29:36;8.67;;;2.77;;
57663;SDS011;43493;53.098;6.064;2023-03-31T16:32:12;8.77;;;3.17;;
57663;SDS011;43493;53.098;6.064;2023-03-31T16:37:17;11.57;;;3.92;;
57663;SDS011;43493;53.098;6.064;2023-03-31T16:39:43;12.03;;;3.43;;
57663;SDS011;43493;53.098;6.064;2023-03-31T16:42:08;11.13;;;3.20;;
57663;SDS011;43493;53.098;6.064;2023-03-31T16:44:34;11.73;;;2.93;;
57663;SDS011;43493;53.098;6.064;2023-03-31T16:47:00;9.60;;;2.60;;
57663;SDS011;43493;53.098;6.064;2023-03-31T16:49:26;10.80;;;2.87;;
57663;SDS011;43493;53.098;6.064;2023-03-31T16:51:52;8.63;;;2.80;;
57663;SDS011;43493;53.098;6.064;2023-03-31T16:54:17;8.97;;;2.70;;
57663;SDS011;43493;53.098;6.064;2023-03-31T16:56:43;8.80;;;2.97;;
57663;SDS011;43493;53.098;6.064;2023-03-31T16:59:09;11.83;;;3.43;;
57663;SDS011;43493;53.098;6.064;2023-03-31T17:01:35;13.10;;;3.47;;
57663;SDS011;43493;53.098;6.064;2023-03-31T17:04:01;9.20;;;3.27;;
57663;SDS011;43493;53.098;6.064;2023-03-31T17:06:26;11.67;;;3.50;;
57663;SDS011;43493;53.098;6.064;2023-03-31T17:08:52;10.27;;;3.10;;
57663;SDS011;43493;53.098;6.064;2023-03-31T17:11:18;11.53;;;4.13;;
57663;SDS011;43493;53.098;6.064;2023-03-31T17:13:43;12.40;;;3.93;;
57663;SDS011;43493;53.098;6.064;2023-03-31T17:16:10;8.53;;;2.60;;
57663;SDS011;43493;53.098;6.064;2023-03-31T17:18:36;7.00;;;2.40;;
57663;SDS011;43493;53.098;6.064;2023-03-31T17:21:03;8.63;;;3.23;;
57663;SDS011;43493;53.098;6.064;2023-03-31T17:23:34;11.87;;;3.90;;
57663;SDS011;43493;53.098;6.064;2023-03-31T17:26:02;12.23;;;5.57;;
57663;SDS011;43493;53.098;6.064;2023-03-31T17:28:29;14.00;;;7.83;;
57663;SDS011;43493;53.098;6.064;2023-03-31T17:30:55;14.77;;;8.27;;
57663;SDS011;43493;53.098;6.064;2023-03-31T17:33:21;12.77;;;6.30;;
57663;SDS011;43493;53.098;6.064;2023-03-31T17:35:47;27.73;;;20.43;;
57663;SDS011;43493;53.098;6.064;2023-03-31T17:38:14;11.70;;;10.10;;
57663;SDS011;43493;53.098;6.064;2023-03-31T17:40:43;10.20;;;4.70;;
57663;SDS011;43493;53.098;6.064;2023-03-31T17:43:09;7.27;;;2.70;;
57663;SDS011;43493;53.098;6.064;2023-03-31T17:45:36;8.93;;;3.40;;
57663;SDS011;43493;53.098;6.064;2023-03-31T17:48:02;10.60;;;3.33;;
57663;SDS011;43493;53.098;6.064;2023-03-31T17:50:29;5.60;;;2.27;;
57663;SDS011;43493;53.098;6.064;2023-03-31T17:52:57;7.63;;;2.80;;
57663;SDS011;43493;53.098;6.064;2023-03-31T17:55:23;6.97;;;2.43;;